Kesley, IA

11:51 AM CDT on April 28, 2015 (GMT -0500)
Beeds Addition | | Change Station
CLOSE
Current Station
Personal Weather Station
Location: Hampton, IA
Elevation: 1145 ft
Nearby Weather Stations

Elev 1145 ft 42.74 °N, 93.20 °W | Updated 23 seconds ago

Clear
Clear
68.0 °F
Feels Like 68.0 °F
N
6.9
Wind Variable Wind from NW
Gusts 9.2 mph

Today
High -- | Low -- °F
--% Chance of Precip.
Yesterday
High -- | Low -- °F
Precip. -- in
6:10 AM 8:08 PM
Waxing Gibbous, 75% visible
Pressure 30.14 in
Visibility 10.0 miles
Clouds Clear
Dew Point 28 °F
Humidity 22%
Rainfall 0.00 in
Snow Depth Not available.
UV 7 out of 12
Pollen 10.40 out of 12
Air Quality Not available.
Flu Activity Local Activity
METAR KALO 281554Z AUTO 34008KT 10SM CLR 18/02 A3014 RMK AO2 SLP206 T01830022

More Conditions Fewer Conditions

Pressure 30.14 in
Visibility 10.0 miles
Clouds Clear
Dew Point 28 °F
Humidity 22%
Rainfall 0.00 in
Snow Depth Not available.
UV 7 out of 12
Pollen 10.40 out of 12
Air Quality Not available.
Flu Activity Local Activity
METAR KALO 281554Z AUTO 34008KT 10SM CLR 18/02 A3014 RMK AO2 SLP206 T01830022

More Conditions Fewer Conditions

10-Day Weather Forecast

Almanac

Astronomy

Apr. 28, 2015 Rise Set
Actual Time
Civil Twilight
Nautical Twilight
Astronomical Twilight
Moon
Length of Visible Light
Length of Day
Tomorrow will be .
, % of the Moon is Illuminated

Today's Extremes

State Highs State Lows

Community

WunderPhotos

Upload Photos

1,817,699 photos uploaded!

WunderBlogs® & News

Nearby

Air Quality

  Air Quality AQ Index Pollutant
Not available.

Snow Depth

Station Depth Elevation

Earthquake Activity

City Distance Mag. Time & Date
Minimum magnitude displayed is 2.5.

Coastal Water Temperatures

Place Temperature

Stations

Nearby Weather Stations

Station Location Temp. Windchill Dew Point Humidity Wind Precip. Elev Updated Type